Plainfield, NJ

9:06 PM EDT on August 20, 2014 (GMT -0400)
Somerset | Change Station
CLOSE
Current Station
Airport
Location: Somerville,
Elevation: 105 ft
Nearby Weather Stations

Elev 105 ft 40.62 °N, 74.67 °W | Updated 13 minutes ago

Clear
Clear
74 °F
Feels Like 74 °F
N
7
Wind Variable Wind from SSE

Today
High -- | Low -- °F
--% Chance of Precip.
Yesterday
High -- | Low -- °F
Precip. -- in
6:13 AM 7:48 PM
Waning Crescent, 18% visible
Pressure 29.99 in
Visibility 10.0 miles
Clouds Clear
Dew Point 58 °F
Humidity 57%
Rainfall 0.00 in
Snow Depth Not available.
UV 0 out of 12
Pollen 9.70 out of 12
Air Quality Not available.
Flu Activity Not available.
METAR KSMQ 210053Z AUTO 16006KT 10SM CLR 23/14 A2999 RMK AO2 SLP154 T02330144

More Conditions Fewer Conditions

Pressure 29.99 in
Visibility 10.0 miles
Clouds Clear
Dew Point 58 °F
Humidity 57%
Rainfall 0.00 in
Snow Depth Not available.
UV 0 out of 12
Pollen 9.70 out of 12
Air Quality Not available.
Flu Activity Not available.
METAR KSMQ 210053Z AUTO 16006KT 10SM CLR 23/14 A2999 RMK AO2 SLP154 T02330144

More Conditions Fewer Conditions

10-Day Weather Forecast

Almanac

Astronomy

Aug. 20, 2014 Rise Set
Actual Time 6:13 AM EDT 7:48 PM EDT
Civil Twilight 5:44 AM EDT 8:17 PM EDT
Nautical Twilight 5:09 AM EDT 8:52 PM EDT
Astronomical Twilight 4:32 AM EDT 9:29 PM EDT
Moon 1:50 AM EDT (8/20) 4:31 PM EDT (8/20)
Length of Visible Light 14h 33m
Length of Day
13h 35m
Tomorrow will be 2m 27s shorter.
Waning Crescent, 18% of the Moon is Illuminated
Today
Waning Crescent
Aug 25
New
Sep 2
First Quarter
Sep 8
Full
Sep 15
Last Quarter

Today's Extremes

State Highs State Lows

Community

WunderPhotos

Upload Photos

1,745,823 photos uploaded!

WunderBlogs® & News

Nearby

Snow Depth

Station Depth Elevation
No new snow has been reported.

Earthquake Activity

City Distance Mag. Time & Date
Deep River Center, Connecticut 113 miles 2.7 3:09 AM EDT
2014-08-14
Minimum magnitude displayed is 2.5.

Coastal Water Temperatures

Place Temperature
Sandy Hook, NJ 75.9 °F
The Battery, NY 73.0 °F
Bergen Point West Reach, NJ 73.9 °F
Kings Point, NY 73.9 °F

Nearby Weather Stations